createdAt,value
2022-10-05T00:02:18.447Z,11.4
2022-10-05T00:05:18.494Z,11.3
2022-10-05T00:08:18.432Z,11.3
2022-10-05T00:11:18.444Z,11.3
2022-10-05T00:14:18.447Z,11.3
2022-10-05T00:17:18.436Z,11.3
2022-10-05T00:20:18.436Z,11.3
2022-10-05T00:23:18.459Z,11.3
2022-10-05T00:26:18.441Z,11.3
2022-10-05T00:29:18.441Z,11.3
2022-10-05T00:32:18.443Z,11.3
2022-10-05T00:35:18.441Z,11.3
2022-10-05T00:38:18.443Z,11.3
2022-10-05T00:41:18.443Z,11.3
2022-10-05T00:44:18.442Z,11.3
2022-10-05T00:47:18.447Z,11.3
2022-10-05T00:50:18.441Z,11.3
2022-10-05T00:53:18.444Z,11.3
2022-10-05T00:56:18.440Z,11.3
2022-10-05T00:59:18.450Z,11.3
2022-10-05T01:02:18.500Z,11.4
2022-10-05T01:05:18.446Z,11.4
2022-10-05T01:08:18.451Z,11.4
2022-10-05T01:11:18.446Z,11.4
2022-10-05T01:14:18.448Z,11.4
2022-10-05T01:17:18.446Z,11.4
2022-10-05T01:20:18.448Z,11.4
2022-10-05T01:23:18.449Z,11.5
2022-10-05T01:26:18.451Z,11.5
2022-10-05T01:29:18.450Z,11.5
2022-10-05T01:32:18.448Z,11.5
2022-10-05T01:35:18.485Z,11.5
2022-10-05T01:38:18.451Z,11.5
2022-10-05T01:41:18.452Z,11.5
2022-10-05T01:44:18.451Z,11.5
2022-10-05T01:47:18.447Z,11.4
2022-10-05T01:50:18.454Z,11.4
2022-10-05T01:53:18.449Z,11.4
2022-10-05T01:56:18.460Z,11.4
2022-10-05T01:59:18.450Z,11.4
2022-10-05T02:02:18.491Z,11.4
2022-10-05T02:05:18.450Z,11.4
2022-10-05T02:08:18.460Z,11.3
2022-10-05T02:11:18.455Z,11.3
2022-10-05T02:14:18.449Z,11.3
2022-10-05T02:17:18.525Z,11.3
2022-10-05T02:20:18.454Z,11.3
2022-10-05T02:23:18.456Z,11.3
2022-10-05T02:26:18.459Z,11.3
2022-10-05T02:29:18.452Z,11.3
2022-10-05T02:32:18.453Z,11.3
2022-10-05T02:35:18.450Z,11.3
2022-10-05T02:38:18.455Z,11.3
2022-10-05T02:41:18.456Z,11.3
2022-10-05T02:44:18.467Z,11.2
2022-10-05T02:47:18.457Z,11.2
2022-10-05T02:50:18.453Z,11.2
2022-10-05T02:53:18.459Z,11.2
2022-10-05T02:56:18.461Z,11.2
2022-10-05T02:59:18.462Z,11.2
2022-10-05T03:02:18.507Z,11.2
2022-10-05T03:05:18.468Z,11.2
2022-10-05T03:08:18.462Z,11.2
2022-10-05T03:11:18.460Z,11.2
2022-10-05T03:14:18.467Z,11.2
2022-10-05T03:17:18.459Z,11.2
2022-10-05T03:20:18.459Z,11.2
2022-10-05T03:23:18.470Z,11.1
2022-10-05T03:26:18.458Z,11.1
2022-10-05T03:29:18.465Z,11.1
2022-10-05T03:32:18.469Z,11.1
2022-10-05T03:35:18.463Z,11.1
2022-10-05T03:38:18.478Z,11.1
2022-10-05T03:41:18.461Z,11
2022-10-05T03:44:18.544Z,11.1
2022-10-05T03:47:18.464Z,11
2022-10-05T03:50:18.467Z,11.1
2022-10-05T03:53:18.468Z,11.1
2022-10-05T03:56:18.476Z,11.1
2022-10-05T03:59:18.471Z,11.1
2022-10-05T04:02:18.513Z,11.1
2022-10-05T04:08:18.482Z,11.1
2022-10-05T04:11:18.471Z,11.1
2022-10-05T04:14:18.473Z,11.1
2022-10-05T04:17:18.524Z,11.1
2022-10-05T04:20:18.494Z,11.1
2022-10-05T04:23:18.475Z,11.1
2022-10-05T04:26:18.477Z,11.1
2022-10-05T04:29:18.482Z,11.1
2022-10-05T04:32:18.474Z,11.1
2022-10-05T04:38:18.479Z,11.1
2022-10-05T04:41:18.475Z,11.1
2022-10-05T04:44:18.483Z,11.1
2022-10-05T04:47:18.485Z,11.1
2022-10-05T04:50:18.509Z,11.1
2022-10-05T04:53:18.485Z,11.1
2022-10-05T04:56:18.481Z,11.1
2022-10-05T04:59:18.495Z,11.1
2022-10-05T05:02:18.500Z,11.1
2022-10-05T05:05:18.504Z,11.1
2022-10-05T05:08:18.488Z,11
2022-10-05T05:11:22.370Z,11
2022-10-05T05:14:18.482Z,11
2022-10-05T05:17:18.500Z,11
2022-10-05T05:20:18.510Z,11
2022-10-05T05:23:18.490Z,11
2022-10-05T05:26:18.489Z,11
2022-10-05T05:29:18.497Z,11
2022-10-05T05:32:18.498Z,10.9
2022-10-05T05:35:18.507Z,10.9
2022-10-05T05:38:18.488Z,10.9
2022-10-05T05:41:18.496Z,10.9
2022-10-05T05:44:18.495Z,10.9
2022-10-05T05:47:18.527Z,10.9
2022-10-05T05:50:18.511Z,10.9
2022-10-05T05:53:18.495Z,10.9
2022-10-05T05:56:18.491Z,10.9
2022-10-05T05:59:18.501Z,10.9
2022-10-05T06:02:18.566Z,10.9
2022-10-05T06:05:18.497Z,10.9
2022-10-05T06:08:18.498Z,10.9
2022-10-05T06:11:18.491Z,10.9
2022-10-05T06:14:18.497Z,11
2022-10-05T06:17:18.496Z,11
2022-10-05T06:20:18.494Z,11
2022-10-05T06:23:18.498Z,11
2022-10-05T06:26:18.508Z,11
2022-10-05T06:29:18.498Z,11
2022-10-05T06:32:18.495Z,11.1
2022-10-05T06:35:18.508Z,11.1
2022-10-05T06:38:18.507Z,11.1
2022-10-05T06:41:18.500Z,11.1
2022-10-05T06:44:18.503Z,11.1
2022-10-05T06:47:18.506Z,11.1
2022-10-05T06:50:18.502Z,11.1
2022-10-05T06:53:18.508Z,11.2
2022-10-05T06:56:18.504Z,11.2
2022-10-05T06:59:18.512Z,11.2
2022-10-05T07:02:18.524Z,11.2
2022-10-05T07:05:18.548Z,11.2
2022-10-05T07:11:18.520Z,11.2
2022-10-05T07:14:18.528Z,11.2
2022-10-05T07:17:18.519Z,11.2
2022-10-05T07:20:18.538Z,11.3
2022-10-05T07:23:18.525Z,11.3
2022-10-05T07:26:18.527Z,11.3
2022-10-05T07:29:18.525Z,11.3
2022-10-05T07:32:18.525Z,11.3
2022-10-05T07:35:18.521Z,11.3
2022-10-05T07:38:18.524Z,11.3
2022-10-05T07:41:18.522Z,11.3
2022-10-05T07:44:18.527Z,11.3
2022-10-05T07:47:18.530Z,11.3
2022-10-05T07:50:18.549Z,11.3
2022-10-05T07:53:18.531Z,11.3
2022-10-05T07:59:18.529Z,11.4
2022-10-05T08:02:18.653Z,11.4
2022-10-05T08:05:18.528Z,11.4
2022-10-05T08:08:19.708Z,11.4
2022-10-05T08:11:18.528Z,11.4
2022-10-05T08:14:18.529Z,11.4
2022-10-05T08:17:20.672Z,11.5
2022-10-05T08:20:18.535Z,11.5
2022-10-05T08:23:18.533Z,11.5
2022-10-05T08:26:18.536Z,11.5
2022-10-05T08:29:18.530Z,11.5
2022-10-05T08:32:18.531Z,11.5
2022-10-05T08:35:18.527Z,11.6
2022-10-05T08:38:18.537Z,11.6
2022-10-05T08:41:18.539Z,11.6
2022-10-05T08:44:18.533Z,11.7
2022-10-05T08:47:18.539Z,11.7
2022-10-05T08:50:18.532Z,11.7
2022-10-05T08:53:18.542Z,11.8
2022-10-05T08:56:20.436Z,11.8
2022-10-05T08:59:18.538Z,11.8
2022-10-05T09:02:18.607Z,11.9
2022-10-05T09:05:18.535Z,11.9
2022-10-05T09:08:18.541Z,11.9
2022-10-05T09:14:18.543Z,12
2022-10-05T09:17:18.541Z,12
2022-10-05T09:20:18.600Z,12.1
2022-10-05T09:23:18.535Z,12.1
2022-10-05T09:26:18.542Z,12.1
2022-10-05T09:29:18.566Z,12.2
2022-10-05T09:38:18.542Z,12.3
2022-10-05T09:41:18.538Z,12.3
2022-10-05T09:44:18.558Z,12.4
2022-10-05T09:47:18.550Z,12.4
2022-10-05T09:50:18.577Z,12.4
2022-10-05T09:53:18.546Z,12.5
2022-10-05T09:56:18.596Z,12.5
2022-10-05T09:59:18.543Z,12.6
2022-10-05T10:02:18.581Z,12.7
2022-10-05T10:05:18.546Z,12.7
2022-10-05T10:08:18.546Z,12.7
2022-10-05T10:11:18.547Z,12.8
2022-10-05T10:14:18.549Z,12.8
2022-10-05T10:17:18.549Z,12.8
2022-10-05T10:20:18.551Z,12.9
2022-10-05T10:23:18.550Z,13
2022-10-05T10:26:18.547Z,13
2022-10-05T10:29:18.584Z,13.1
2022-10-05T10:32:18.550Z,13.2
2022-10-05T10:35:18.618Z,13.2
2022-10-05T10:38:18.552Z,13.3
2022-10-05T10:41:18.559Z,13.4
2022-10-05T10:44:18.555Z,13.4
2022-10-05T10:47:18.555Z,13.5
2022-10-05T10:50:18.567Z,13.6
2022-10-05T10:53:18.557Z,13.7
2022-10-05T10:56:18.549Z,13.7
2022-10-05T10:59:18.557Z,13.7
2022-10-05T11:02:18.624Z,13.9
2022-10-05T11:05:18.556Z,13.9
2022-10-05T11:08:18.559Z,14
2022-10-05T11:11:18.566Z,14
2022-10-05T11:14:18.556Z,14.1
2022-10-05T11:17:18.558Z,14.2
2022-10-05T11:20:18.555Z,14.3
2022-10-05T11:23:18.574Z,14.3
2022-10-05T11:26:18.587Z,14.4
2022-10-05T11:29:18.588Z,14.4
2022-10-05T11:32:18.578Z,14.4
2022-10-05T11:35:18.578Z,14.5
2022-10-05T11:41:18.580Z,14.6
2022-10-05T11:44:18.587Z,14.7
2022-10-05T11:53:18.589Z,14.8
2022-10-05T11:56:18.608Z,14.9
2022-10-05T11:59:18.593Z,14.9
2022-10-05T12:02:18.589Z,14.9
2022-10-05T12:05:18.587Z,14.9
2022-10-05T12:08:18.597Z,15
2022-10-05T12:14:18.580Z,15.1
2022-10-05T12:17:18.607Z,15.1
2022-10-05T12:20:18.585Z,15.1
2022-10-05T12:23:18.586Z,15.1
2022-10-05T12:26:18.599Z,15.2
2022-10-05T12:29:18.602Z,15.2
2022-10-05T12:32:18.591Z,15.2
2022-10-05T12:35:29.897Z,15.2
2022-10-05T12:38:18.607Z,15.3
2022-10-05T12:41:18.608Z,15.3
2022-10-05T12:44:18.591Z,15.4
2022-10-05T12:47:18.598Z,15.4
2022-10-05T12:50:18.593Z,15.5
2022-10-05T12:53:18.592Z,15.5
2022-10-05T12:56:18.611Z,15.5
2022-10-05T12:59:18.593Z,15.6
2022-10-05T13:02:18.634Z,15.6
2022-10-05T13:05:18.596Z,15.7
2022-10-05T13:08:18.611Z,15.7
2022-10-05T13:11:18.714Z,15.7
2022-10-05T13:14:18.610Z,15.8
2022-10-05T13:17:18.598Z,15.8
2022-10-05T13:20:18.610Z,15.9
2022-10-05T13:23:18.603Z,15.9
2022-10-05T13:26:18.620Z,16
2022-10-05T13:29:18.605Z,16
2022-10-05T13:32:18.623Z,16.1
2022-10-05T13:35:18.600Z,16.2
2022-10-05T13:38:18.611Z,16.2
2022-10-05T13:41:18.617Z,16.2
2022-10-05T13:44:18.614Z,16.3
2022-10-05T13:47:18.616Z,16.3
2022-10-05T13:50:18.602Z,16.4
2022-10-05T13:53:18.612Z,16.4
2022-10-05T13:56:18.621Z,16.4
2022-10-05T13:59:18.604Z,16.4
2022-10-05T14:02:18.618Z,16.5
2022-10-05T14:05:18.604Z,16.5
2022-10-05T14:08:18.605Z,16.5
2022-10-05T14:11:18.622Z,16.6
2022-10-05T14:14:18.608Z,16.6
2022-10-05T14:17:18.616Z,16.6
2022-10-05T14:20:18.620Z,16.7
2022-10-05T14:23:21.607Z,16.7
2022-10-05T14:26:18.613Z,16.7
2022-10-05T14:29:18.609Z,16.8
2022-10-05T14:32:18.657Z,16.8
2022-10-05T14:35:18.609Z,16.8
2022-10-05T14:38:18.616Z,17
2022-10-05T14:41:18.867Z,17.1
2022-10-05T14:44:18.609Z,17.2
2022-10-05T14:47:18.612Z,17.2
2022-10-05T14:50:18.609Z,17.2
2022-10-05T14:53:18.612Z,17.2
2022-10-05T14:56:18.611Z,17.2
2022-10-05T14:59:18.612Z,17.2
2022-10-05T15:02:18.720Z,17.2
2022-10-05T15:08:18.621Z,17.1
2022-10-05T15:11:18.613Z,17.1
2022-10-05T15:14:18.616Z,17.1
2022-10-05T15:17:18.617Z,17.1
2022-10-05T15:20:18.616Z,17
2022-10-05T15:26:18.779Z,17
2022-10-05T15:29:18.728Z,17
2022-10-05T15:32:18.620Z,17
2022-10-05T15:35:18.655Z,17
2022-10-05T15:38:18.615Z,17
2022-10-05T15:41:18.661Z,17
2022-10-05T15:44:18.641Z,17
2022-10-05T15:47:18.626Z,17
2022-10-05T15:50:18.620Z,16.9
2022-10-05T15:53:18.622Z,16.9
2022-10-05T15:56:18.664Z,16.9
2022-10-05T15:59:18.626Z,16.9
2022-10-05T16:02:18.662Z,16.9
2022-10-05T16:05:18.615Z,16.8
2022-10-05T16:08:18.619Z,16.8
2022-10-05T16:11:19.193Z,16.8
2022-10-05T16:14:18.618Z,16.8
2022-10-05T16:17:18.617Z,16.7
2022-10-05T16:20:18.622Z,16.7
2022-10-05T16:23:18.623Z,16.7
2022-10-05T16:26:18.620Z,16.7
2022-10-05T16:29:18.628Z,16.7
2022-10-05T16:32:18.622Z,16.6
2022-10-05T16:35:18.627Z,16.6
2022-10-05T16:38:18.629Z,16.5
2022-10-05T16:41:18.623Z,16.5
2022-10-05T16:44:18.624Z,16.5
2022-10-05T16:47:18.623Z,16.4
2022-10-05T16:50:18.630Z,16.4
2022-10-05T16:53:18.623Z,16.4
2022-10-05T16:56:18.623Z,16.4
2022-10-05T16:59:18.624Z,16.3
2022-10-05T17:02:18.682Z,16.3
2022-10-05T17:05:18.624Z,16.3
2022-10-05T17:08:18.631Z,16.2
2022-10-05T17:11:18.629Z,16.2
2022-10-05T17:14:18.628Z,16.2
2022-10-05T17:17:18.627Z,16.1
2022-10-05T17:20:18.629Z,16.1
2022-10-05T17:23:18.632Z,16.1
2022-10-05T17:26:18.644Z,16
2022-10-05T17:29:18.634Z,16
2022-10-05T17:32:18.641Z,16
2022-10-05T17:35:19.020Z,15.9
2022-10-05T17:38:18.634Z,15.9
2022-10-05T17:41:18.640Z,15.9
2022-10-05T17:44:18.640Z,15.8
2022-10-05T17:47:18.631Z,15.8
2022-10-05T17:50:18.635Z,15.8
2022-10-05T17:53:18.635Z,15.7
2022-10-05T17:56:18.637Z,15.7
2022-10-05T17:59:18.639Z,15.7
2022-10-05T18:02:18.665Z,15.7
2022-10-05T18:05:18.664Z,15.6
2022-10-05T18:08:18.641Z,15.6
2022-10-05T18:11:18.645Z,15.6
2022-10-05T18:14:18.647Z,15.6
2022-10-05T18:17:18.635Z,15.6
2022-10-05T18:20:18.651Z,15.6
2022-10-05T18:23:18.643Z,15.6
2022-10-05T18:26:18.644Z,15.6
2022-10-05T18:29:18.648Z,15.6
2022-10-05T18:32:18.648Z,15.7
2022-10-05T18:35:18.648Z,15.7
2022-10-05T18:38:18.650Z,15.7
2022-10-05T18:41:18.643Z,15.7
2022-10-05T18:47:18.641Z,15.8
2022-10-05T18:50:18.648Z,15.8
2022-10-05T18:53:18.641Z,15.8
2022-10-05T18:56:18.648Z,15.8
2022-10-05T18:59:18.649Z,15.9
2022-10-05T19:02:18.902Z,15.9
2022-10-05T19:05:42.877Z,15.9
2022-10-05T19:08:18.650Z,15.9
2022-10-05T19:11:18.650Z,15.9
2022-10-05T19:14:18.658Z,15.9
2022-10-05T19:17:18.645Z,15.9
2022-10-05T19:20:18.653Z,15.9
2022-10-05T19:23:18.651Z,15.9
2022-10-05T19:26:18.669Z,15.8
2022-10-05T19:29:18.658Z,15.8
2022-10-05T19:32:18.657Z,15.8
2022-10-05T19:35:18.651Z,15.8
2022-10-05T19:41:18.656Z,15.7
2022-10-05T19:44:18.656Z,15.7
2022-10-05T19:47:18.653Z,15.7
2022-10-05T19:50:18.673Z,15.7
2022-10-05T19:53:18.653Z,15.6
2022-10-05T19:56:18.661Z,15.6
2022-10-05T19:59:18.653Z,15.6
2022-10-05T20:02:18.656Z,15.6
2022-10-05T20:05:18.653Z,15.6
2022-10-05T20:08:18.663Z,15.5
2022-10-05T20:11:18.661Z,15.5
2022-10-05T20:14:18.658Z,15.5
2022-10-05T20:17:18.655Z,15.5
2022-10-05T20:20:18.656Z,15.5
2022-10-05T20:23:18.663Z,15.5
2022-10-05T20:26:18.658Z,15.4
2022-10-05T20:29:18.657Z,15.4
2022-10-05T20:32:18.672Z,15.4
2022-10-05T20:35:18.665Z,15.4
2022-10-05T20:38:18.665Z,15.4
2022-10-05T20:41:18.663Z,15.4
2022-10-05T20:44:18.663Z,15.4
2022-10-05T20:47:18.668Z,15.4
2022-10-05T20:50:18.660Z,15.4
2022-10-05T20:53:18.678Z,15.4
2022-10-05T20:56:18.666Z,15.4
2022-10-05T20:59:18.670Z,15.4
2022-10-05T21:02:18.670Z,15.4
2022-10-05T21:05:18.707Z,15.4
2022-10-05T21:08:18.673Z,15.4
2022-10-05T21:11:18.677Z,15.4
2022-10-05T21:14:18.673Z,15.4
2022-10-05T21:17:18.670Z,15.4
2022-10-05T21:20:18.672Z,15.4
2022-10-05T21:23:18.675Z,15.4
2022-10-05T21:26:18.673Z,15.4
2022-10-05T21:29:18.680Z,15.3
2022-10-05T21:32:18.681Z,15.3
2022-10-05T21:35:18.674Z,15.3
2022-10-05T21:41:18.679Z,15.3
2022-10-05T21:44:18.677Z,15.3
2022-10-05T21:47:18.710Z,15.3
2022-10-05T21:50:18.680Z,15.3
2022-10-05T21:53:18.682Z,15.2
2022-10-05T21:56:18.674Z,15.2
2022-10-05T21:59:18.675Z,15.2
2022-10-05T22:02:18.682Z,15.2
2022-10-05T22:05:18.709Z,15.2
2022-10-05T22:08:18.678Z,15.1
2022-10-05T22:11:18.681Z,15.1
2022-10-05T22:14:18.682Z,15.1
2022-10-05T22:17:18.692Z,15.1
2022-10-05T22:23:18.679Z,15
2022-10-05T22:26:18.676Z,15
2022-10-05T22:29:18.683Z,15
2022-10-05T22:32:18.676Z,15
2022-10-05T22:35:18.679Z,15
2022-10-05T22:38:18.677Z,15
2022-10-05T22:41:18.688Z,15
2022-10-05T22:44:18.684Z,14.9
2022-10-05T22:47:18.683Z,14.9
2022-10-05T22:50:18.683Z,14.9
2022-10-05T22:53:18.679Z,14.9
2022-10-05T22:56:18.685Z,14.9
2022-10-05T22:59:18.681Z,14.9
2022-10-05T23:02:18.751Z,14.8
2022-10-05T23:05:18.689Z,14.8
2022-10-05T23:08:18.694Z,14.8
2022-10-05T23:11:18.690Z,14.7
2022-10-05T23:14:18.692Z,14.7
2022-10-05T23:17:18.690Z,14.7
2022-10-05T23:20:18.685Z,14.7
2022-10-05T23:23:18.689Z,14.6
2022-10-05T23:26:18.689Z,14.6
2022-10-05T23:29:18.717Z,14.6
2022-10-05T23:32:18.689Z,14.6
2022-10-05T23:35:18.689Z,14.6
2022-10-05T23:38:18.761Z,14.6
2022-10-05T23:41:18.685Z,14.6
2022-10-05T23:44:18.693Z,14.6
2022-10-05T23:47:18.693Z,14.6
2022-10-05T23:50:18.684Z,14.6
2022-10-05T23:53:18.693Z,14.6
2022-10-05T23:56:18.690Z,14.6
2022-10-05T23:59:18.695Z,14.6
